Have a Safe July 4th! 

Flight Track Log - Related Links

Times and Time Zones

All times are in EDT time to prevent confusion due to time zone crossing. See the DAL6201 flight status page for this flight to view local times or setup timezone preferences in your user account.

Time Position Orientation Groundspeed Altitude Reporting Facility
EDT Latitude Longitude Course Direction KTS MPH feet Rate Location/Type
Sat 10:01:45 AM 40.8167 -73.8667 276° West 151 174 2,500  Level New York TRACON
Sat 10:02:45 AM 40.8833 -73.8833 349° North 223 257 4,700 1,800 Climbing New York TRACON
Sat 10:03:45 AM 40.9167 -73.9333 311° West 256 295 6,100 1,350 Climbing New York TRACON
Sat 10:04:45 AM 40.9333 -74.0333 282° West 258 297 7,400 2,200 Climbing New York TRACON
Sat 10:05:45 AM 40.9333 -74.1333 270° West 274 315 10,500 2,381 Climbing New York TRACON
Sat 10:07:00 AM 40.8476 -74.6023 276° West  Level FlightAware Approximate
Sat 10:07:54 AM 40.9217 -74.3631 266° West 321 369 14,900  Level New York Center
Sat 10:08:52 AM 40.9219 -74.4894 270° West 337 388 17,000 1,119 Climbing New York Center
Sat 10:09:52 AM 40.9217 -74.6211 270° West 357 411 17,100  Climbing New York Center
Sat 10:10:53 AM 40.9214 -74.7611 270° West 373 429 17,000 -50 Descending New York Center
Sat 10:11:53 AM 40.9197 -74.8683 269° West 378 435 17,000 397 Level New York Center
Sat 10:12:54 AM 40.8994 -75.0289 261° West 373 429 17,800 1,240 Climbing New York Center
Sat 10:13:54 AM 40.8764 -75.1483 256° West 378 435 19,500 1,780 Climbing New York Center
Sat 10:14:52 AM 40.8503 -75.2864 256° West 378 435 21,300 1,780 Climbing New York Center
Sat 10:15:52 AM 40.8242 -75.4247 256° West 388 447 23,000 1,686 Climbing New York Center
Sat 10:16:53 AM 40.7975 -75.5653 256° West 393 452 24,700 1,600 Climbing New York Center
Sat 10:17:52 AM 40.7689 -75.7058 255° West 393 452 26,200 1,311 Climbing New York Center
Sat 10:18:52 AM 40.7397 -75.8517 255° West 398 458 27,300 893 Climbing New York Center
Sat 10:19:53 AM 40.7125 -75.9975 256° West 408 470 28,000 344 Climbing New York Center
Sat 10:20:54 AM 40.6828 -76.1514 256° West 427 491 28,000  Level New York Center
Sat 10:21:52 AM 40.6739 -76.3011 266° West 432 497 28,000  Level New York Center
Sat 10:22:53 AM 40.6958 -76.4506 281° West 414 476 28,000  Level New York Center
Sat 10:23:53 AM 40.7200 -76.5978 282° West 414 476 28,000  Level New York Center
Sat 10:24:54 AM 40.7417 -76.7475 281° West 414 476 28,000  Level New York Center
Sat 10:25:53 AM 40.7611 -76.9000 280° West 414 476 28,000  Level New York Center
Sat 10:26:54 AM 40.7822 -77.0528 280° West 419 482 28,000  Level New York Center
Sat 10:27:54 AM 40.8053 -77.2031 282° West 419 482 28,000  Level New York Center
Sat 10:28:55 AM 40.8317 -77.3672 282° West 419 482 28,000 -877 Level New York Center
Sat 10:30:45 AM 40.8650 -77.6286 280° West 408 470 25,500 -1,482 Descending Cleveland Center
Sat 10:31:45 AM 40.8853 -77.7789 280° West 408 470 23,800 -1,550 Descending Cleveland Center
Sat 10:32:45 AM 40.9056 -77.9292 280° West 413 475 22,400 -900 Descending Cleveland Center
Sat 10:33:45 AM 40.9028 -78.0803 269° West 413 475 22,000 -200 Descending Cleveland Center
Sat 10:34:45 AM 40.8997 -78.2289 268° West 408 470 22,000  Level Cleveland Center
Sat 10:35:45 AM 40.9008 -78.3881 271° West 402 463 22,000  Level Cleveland Center
Sat 10:36:45 AM 40.8950 -78.5311 267° West 402 463 22,000  Level Cleveland Center
Sat 10:37:45 AM 40.8914 -78.6742 268° West 402 463 22,000  Level Cleveland Center
Sat 10:38:45 AM 40.8894 -78.8197 269° West 402 463 22,000 -900 Level Cleveland Center
Sat 10:39:45 AM 40.8833 -78.9600 267° West 397 457 20,200 -1,800 Descending Cleveland Center
Sat 10:40:45 AM 40.8808 -79.0947 269° West 385 443 18,400 -1,600 Descending Cleveland Center
Sat 10:41:45 AM 40.8783 -79.2156 268° West 385 443 17,000 -1,600 Descending Cleveland Center
Sat 10:42:45 AM 40.8736 -79.3475 267° West 374 430 15,200 -1,800 Descending Cleveland Center

Login

Don't have an account? Register now (free) for customized features, flight alerts, and more!